Time;durP1;ratioP1;P1;durP2;ratioP2;P2;SDS_P1;SDS_P2;PMS_P1;PMS_P2;Temp;Humidity;BMP_temperature;BMP_pressure;BME280_temperature;BME280_humidity;BME280_pressure;Samples;Min_cycle;Max_cycle;Signal;HPM_P1;HPM_P2
2023/01/27 00:00:56;;;;;;;;;;;4.00;83.80;;;;;;5052358;28;19944;-86
2023/01/27 00:03:22;;;;;;;;;;;4.10;83.90;;;;;;5052705;28;19919;-85
2023/01/27 00:05:48;;;;;;;;;;;4.00;84.00;;;;;;5045655;28;20480;-85
2023/01/27 00:08:14;;;;;;;;;;;4.00;84.10;;;;;;5052246;28;19940;-83
2023/01/27 00:10:39;;;;;;;;;;;4.00;84.00;;;;;;5074202;28;19927;-84
2023/01/27 00:15:49;;;;;;;;;;;4.10;83.50;;;;;;5047162;28;20290;-85
2023/01/27 00:18:15;;;;;;;;;;;4.10;83.90;;;;;;5069177;22;20003;-78
2023/01/27 00:26:11;;;;;;;;;;;4.00;84.10;;;;;;5055516;28;19919;-78
2023/01/27 00:28:37;;;;;;;;;;;4.10;84.00;;;;;;5056352;28;19921;-78
2023/01/27 00:31:03;;;;;;;;;;;4.10;84.70;;;;;;5043587;28;19917;-79
2023/01/27 00:33:29;;;;;;;;;;;4.00;84.80;;;;;;5039106;28;19948;-79
2023/01/27 00:36:02;;;;;;;;;;;4.00;84.70;;;;;;5044358;28;19917;-79
2023/01/27 00:38:28;;;;;;;;;;;4.00;84.90;;;;;;5044313;28;20051;-78
2023/01/27 00:43:38;;;;;;;;;;;4.10;84.60;;;;;;5048100;28;19935;-79
2023/01/27 00:46:03;;;;;;;;;;;4.10;84.90;;;;;;5041759;28;19912;-79
2023/01/27 00:48:29;;;;;;;;;;;4.00;85.20;;;;;;5041155;28;19961;-79
2023/01/27 00:50:54;;;;;;;;;;;4.10;85.30;;;;;;5050803;28;19971;-79
2023/01/27 00:53:20;;;;;;;;;;;4.00;85.60;;;;;;5042117;28;19917;-79
2023/01/27 00:55:48;;;;;;;;;;;4.10;85.10;;;;;;5038386;28;19913;-78
2023/01/27 00:58:14;;;;;;;;;;;4.10;85.20;;;;;;5051279;28;20232;-79
2023/01/27 01:00:39;;;;;;;;;;;4.00;85.70;;;;;;5049451;28;19913;-79
2023/01/27 01:03:05;;;;;;;;;;;4.00;85.70;;;;;;5048108;28;19913;-79
2023/01/27 01:05:30;;;;;;;;;;;3.90;86.10;;;;;;5043738;28;19921;-79
2023/01/27 01:07:56;;;;;;;;;;;3.80;86.40;;;;;;5048660;28;19916;-79
2023/01/27 01:10:21;;;;;;;;;;;3.90;86.50;;;;;;5043991;28;19917;-78
2023/01/27 01:12:46;;;;;;;;;;;3.80;86.50;;;;;;5047942;28;19913;-78
2023/01/27 01:15:12;;;;;;;;;;;3.80;86.90;;;;;;5043803;28;20012;-78
2023/01/27 01:17:37;;;;;;;;;;;3.70;87.20;;;;;;5040261;28;19925;-79
2023/01/27 01:20:03;;;;;;;;;;;3.60;87.50;;;;;;5045743;28;19942;-78
2023/01/27 01:22:28;;;;;;;;;;;3.70;87.80;;;;;;5040515;28;19912;-78
2023/01/27 01:24:54;;;;;;;;;;;3.70;87.60;;;;;;5041501;28;19944;-79
2023/01/27 01:27:19;;;;;;;;;;;3.60;87.90;;;;;;5038694;28;21187;-78
2023/01/27 01:29:45;;;;;;;;;;;3.60;87.70;;;;;;5043688;28;19939;-78
2023/01/27 01:32:10;;;;;;;;;;;3.60;87.40;;;;;;5049546;28;19924;-78
2023/01/27 01:34:36;;;;;;;;;;;3.60;87.20;;;;;;5045058;28;19920;-78
2023/01/27 01:37:02;;;;;;;;;;;3.60;87.10;;;;;;5035190;28;19919;-78
2023/01/27 01:39:28;;;;;;;;;;;3.50;87.00;;;;;;5050328;28;20285;-78
2023/01/27 01:41:53;;;;;;;;;;;3.40;87.40;;;;;;5044534;28;20271;-78
2023/01/27 01:44:26;;;;;;;;;;;3.50;87.30;;;;;;5052760;28;19913;-78
2023/01/27 01:46:51;;;;;;;;;;;3.40;87.40;;;;;;5039778;28;19913;-78
2023/01/27 01:49:19;;;;;;;;;;;3.30;87.20;;;;;;5037534;28;19913;-78
2023/01/27 01:51:47;;;;;;;;;;;3.30;87.50;;;;;;5036921;28;20437;-79
2023/01/27 01:54:32;;;;;;;;;;;3.20;87.30;;;;;;5050172;28;19963;-78
2023/01/27 01:57:07;;;;;;;;;;;3.10;87.20;;;;;;5048358;28;19935;-79
2023/01/27 01:59:35;;;;;;;;;;;3.20;87.00;;;;;;5043338;28;19916;-78
2023/01/27 02:02:02;;;;;;;;;;;3.00;86.80;;;;;;5036100;28;19921;-79
2023/01/27 02:04:31;;;;;;;;;;;3.10;86.70;;;;;;5040366;28;20272;-78
2023/01/27 02:07:00;;;;;;;;;;;3.00;87.00;;;;;;5043097;28;19920;-79
2023/01/27 02:09:26;;;;;;;;;;;3.10;87.10;;;;;;5034886;28;20343;-79
2023/01/27 02:11:52;;;;;;;;;;;3.10;87.20;;;;;;5044736;28;20359;-78
2023/01/27 02:14:17;;;;;;;;;;;3.20;86.90;;;;;;5043205;28;20029;-79
2023/01/27 02:16:43;;;;;;;;;;;3.20;87.00;;;;;;5043404;28;19913;-79
2023/01/27 02:19:13;;;;;;;;;;;3.20;87.30;;;;;;5052538;28;20367;-79
2023/01/27 02:21:38;;;;;;;;;;;3.30;87.40;;;;;;5042513;28;19999;-79
2023/01/27 02:24:11;;;;;;;;;;;3.20;87.50;;;;;;5048807;28;19955;-79
2023/01/27 02:26:41;;;;;;;;;;;3.10;88.00;;;;;;5043232;28;20008;-79
2023/01/27 02:29:12;;;;;;;;;;;3.20;88.10;;;;;;5052068;28;19935;-78
2023/01/27 02:31:40;;;;;;;;;;;3.30;88.00;;;;;;5045832;28;22316;-79
2023/01/27 02:34:09;;;;;;;;;;;3.20;88.30;;;;;;5045549;28;20003;-79
2023/01/27 02:36:39;;;;;;;;;;;3.30;88.60;;;;;;5057770;28;19924;-79
2023/01/27 02:39:06;;;;;;;;;;;3.20;88.70;;;;;;5045193;28;19913;-79
2023/01/27 02:41:46;;;;;;;;;;;3.10;88.40;;;;;;5049273;28;20693;-78
2023/01/27 02:44:12;;;;;;;;;;;3.10;88.70;;;;;;5044395;28;19975;-78
2023/01/27 02:46:37;;;;;;;;;;;3.20;88.90;;;;;;5039979;28;20109;-79
2023/01/27 02:49:03;;;;;;;;;;;3.10;88.80;;;;;;5045857;28;19913;-78
2023/01/27 02:51:28;;;;;;;;;;;3.30;88.90;;;;;;5044223;28;19921;-79
2023/01/27 02:53:54;;;;;;;;;;;3.40;88.60;;;;;;5045052;28;19928;-78
2023/01/27 02:56:19;;;;;;;;;;;3.30;88.50;;;;;;5047928;28;20004;-79
2023/01/27 02:58:45;;;;;;;;;;;3.20;88.50;;;;;;5054510;28;19947;-78
2023/01/27 03:01:10;;;;;;;;;;;3.10;88.50;;;;;;5042998;28;19917;-79
2023/01/27 03:03:42;;;;;;;;;;;3.20;88.40;;;;;;5039184;28;19917;-79
2023/01/27 03:06:14;;;;;;;;;;;3.20;88.40;;;;;;5044010;28;20315;-79
2023/01/27 03:08:40;;;;;;;;;;;3.20;88.30;;;;;;5051132;28;20008;-79
2023/01/27 03:11:06;;;;;;;;;;;3.20;88.50;;;;;;5044055;28;20016;-79
2023/01/27 03:13:32;;;;;;;;;;;3.20;88.40;;;;;;5044890;28;19917;-79
2023/01/27 03:18:46;;;;;;;;;;;3.30;88.00;;;;;;5043971;28;19924;-77
2023/01/27 03:21:12;;;;;;;;;;;3.40;87.60;;;;;;5046922;28;20007;-77
2023/01/27 03:23:37;;;;;;;;;;;3.30;87.70;;;;;;5043512;28;19920;-77
2023/01/27 03:26:06;;;;;;;;;;;3.40;87.70;;;;;;5045804;28;19920;-77
2023/01/27 03:28:32;;;;;;;;;;;3.30;87.70;;;;;;5040757;28;19920;-78
2023/01/27 03:30:58;;;;;;;;;;;3.30;88.10;;;;;;5046392;28;19921;-77
2023/01/27 03:33:24;;;;;;;;;;;3.30;88.20;;;;;;5045077;28;19913;-78
2023/01/27 03:46:47;;;;;;;;;;;3.20;88.90;;;;;;5046764;28;20338;-77
2023/01/27 03:49:12;;;;;;;;;;;3.10;89.10;;;;;;5041910;28;19945;-78
2023/01/27 03:51:37;;;;;;;;;;;3.10;89.40;;;;;;5046493;28;19913;-78
2023/01/27 03:54:03;;;;;;;;;;;3.10;89.40;;;;;;5041539;28;19913;-78
2023/01/27 03:56:28;;;;;;;;;;;3.00;89.50;;;;;;5046448;28;19913;-78
2023/01/27 03:58:54;;;;;;;;;;;3.10;89.70;;;;;;5044188;28;19944;-78
2023/01/27 04:01:21;;;;;;;;;;;3.10;89.90;;;;;;5048590;28;21389;-77
2023/01/27 04:09:19;;;;;;;;;;;3.20;89.80;;;;;;5046337;28;20001;-78
2023/01/27 04:11:54;;;;;;;;;;;3.30;89.70;;;;;;5044218;28;19917;-78
2023/01/27 04:14:38;;;;;;;;;;;3.20;89.80;;;;;;5056664;28;19924;-78
2023/01/27 04:17:04;;;;;;;;;;;3.20;90.10;;;;;;5049159;28;19917;-78
2023/01/27 04:19:30;;;;;;;;;;;3.10;89.80;;;;;;5039396;28;19935;-78
2023/01/27 04:21:56;;;;;;;;;;;3.20;90.00;;;;;;5041029;28;20304;-78
2023/01/27 04:24:23;;;;;;;;;;;3.20;90.10;;;;;;5047408;28;19909;-78
2023/01/27 04:27:08;;;;;;;;;;;3.20;90.10;;;;;;5048799;28;19916;-77
2023/01/27 04:29:36;;;;;;;;;;;3.20;90.30;;;;;;5043200;28;19960;-77
2023/01/27 04:32:03;;;;;;;;;;;3.20;90.20;;;;;;5048730;28;19912;-78
2023/01/27 04:34:28;;;;;;;;;;;3.20;90.30;;;;;;5046704;28;19932;-78
2023/01/27 04:36:54;;;;;;;;;;;3.20;90.40;;;;;;5043449;28;19912;-78
2023/01/27 04:39:20;;;;;;;;;;;3.20;90.50;;;;;;5049248;28;19917;-78
2023/01/27 04:41:45;;;;;;;;;;;3.10;90.50;;;;;;5049884;28;19913;-78
2023/01/27 04:44:11;;;;;;;;;;;3.20;90.60;;;;;;5043234;28;19957;-78
2023/01/27 04:46:37;;;;;;;;;;;3.20;90.70;;;;;;5049407;28;19983;-78
2023/01/27 04:49:03;;;;;;;;;;;3.20;90.70;;;;;;5047945;28;20367;-78
2023/01/27 04:51:28;;;;;;;;;;;3.30;90.60;;;;;;5055536;28;19963;-78
2023/01/27 04:53:54;;;;;;;;;;;3.30;90.60;;;;;;5048687;28;19913;-78
2023/01/27 04:56:19;;;;;;;;;;;3.30;90.60;;;;;;5050895;28;20067;-78
2023/01/27 04:58:45;;;;;;;;;;;3.30;90.60;;;;;;5052460;28;20091;-77
2023/01/27 05:01:10;;;;;;;;;;;3.30;90.50;;;;;;5048389;28;19931;-78
2023/01/27 05:03:36;;;;;;;;;;;3.20;90.40;;;;;;5037406;28;20456;-78
2023/01/27 05:06:01;;;;;;;;;;;3.30;90.50;;;;;;5042783;28;19920;-78
2023/01/27 05:08:26;;;;;;;;;;;3.40;90.50;;;;;;5045892;28;19916;-78
2023/01/27 05:10:52;;;;;;;;;;;3.50;90.60;;;;;;5052792;28;19917;-78
2023/01/27 05:13:18;;;;;;;;;;;3.30;90.40;;;;;;5043427;28;19952;-78
2023/01/27 05:15:43;;;;;;;;;;;3.40;90.40;;;;;;5043355;28;19912;-78
2023/01/27 05:18:08;;;;;;;;;;;3.50;90.30;;;;;;5040234;28;19917;-78
2023/01/27 05:20:34;;;;;;;;;;;3.50;90.40;;;;;;5046367;28;19924;-78
2023/01/27 05:25:54;;;;;;;;;;;3.50;90.30;;;;;;5024495;28;20341;-78
2023/01/27 05:28:20;;;;;;;;;;;3.60;89.80;;;;;;5044218;28;19916;-78
2023/01/27 05:30:45;;;;;;;;;;;3.60;90.00;;;;;;5042983;28;20346;-78
2023/01/27 05:33:10;;;;;;;;;;;3.60;89.90;;;;;;5049720;28;20384;-79
2023/01/27 05:35:36;;;;;;;;;;;3.60;90.00;;;;;;5045067;28;19919;-78
2023/01/27 05:38:01;;;;;;;;;;;3.60;90.00;;;;;;5045505;28;19970;-78
2023/01/27 05:40:27;;;;;;;;;;;3.60;89.80;;;;;;5046736;28;19912;-78
2023/01/27 05:42:52;;;;;;;;;;;3.60;89.60;;;;;;5044547;28;20326;-78
2023/01/27 05:45:18;;;;;;;;;;;3.60;89.60;;;;;;5044551;28;20007;-78
2023/01/27 05:47:47;;;;;;;;;;;3.60;89.70;;;;;;5038456;28;19940;-78
2023/01/27 05:50:12;;;;;;;;;;;3.60;89.60;;;;;;5049335;28;20279;-78
2023/01/27 05:52:38;;;;;;;;;;;3.70;89.50;;;;;;5042320;28;19913;-78
2023/01/27 05:55:03;;;;;;;;;;;3.60;89.60;;;;;;5046927;28;19957;-78
2023/01/27 05:57:29;;;;;;;;;;;3.60;89.70;;;;;;5042333;28;19959;-78
2023/01/27 05:59:54;;;;;;;;;;;3.70;89.50;;;;;;5039506;28;19917;-78
2023/01/27 06:02:19;;;;;;;;;;;3.60;89.40;;;;;;5043093;28;19913;-78
2023/01/27 06:04:45;;;;;;;;;;;3.60;89.70;;;;;;5038330;28;19913;-78
2023/01/27 06:07:10;;;;;;;;;;;3.60;89.50;;;;;;5045120;28;19916;-78
2023/01/27 06:09:37;;;;;;;;;;;3.60;89.50;;;;;;5043825;28;19917;-78
2023/01/27 06:12:03;;;;;;;;;;;3.80;89.50;;;;;;5045008;28;19917;-78
2023/01/27 06:14:28;;;;;;;;;;;3.70;89.20;;;;;;5038253;28;19916;-78
2023/01/27 06:19:26;;;;;;;;;;;3.80;89.00;;;;;;5044110;28;19929;-80
2023/01/27 06:21:57;;;;;;;;;;;3.70;88.90;;;;;;5047569;28;19913;-81
2023/01/27 06:24:35;;;;;;;;;;;3.70;89.10;;;;;;5041437;28;19913;-86
2023/01/27 06:27:10;;;;;;;;;;;3.70;89.20;;;;;;5038443;28;19952;-85
2023/01/27 06:29:41;;;;;;;;;;;4.00;89.00;;;;;;5043162;28;19935;-85
2023/01/27 06:32:11;;;;;;;;;;;3.90;88.70;;;;;;5045360;28;19970;-84
2023/01/27 06:34:37;;;;;;;;;;;4.00;88.30;;;;;;5037609;28;19913;-85
2023/01/27 06:37:21;;;;;;;;;;;;;;;;;;;;;
2023/01/27 06:39:53;;;;;;;;;;;4.00;88.40;;;;;;5042747;28;19913;-85
2023/01/27 06:42:30;;;;;;;;;;;4.00;88.20;;;;;;5041236;28;19928;-86
2023/01/27 06:45:03;;;;;;;;;;;3.90;88.30;;;;;;5057883;28;19932;-84
2023/01/27 06:47:32;;;;;;;;;;;4.00;88.50;;;;;;5046544;28;19920;-83
2023/01/27 06:52:33;;;;;;;;;;;3.90;88.60;;;;;;1023115;26;20243;-85
2023/01/27 06:54:59;;;;;;;;;;;3.90;88.60;;;;;;5066656;28;20003;-84
2023/01/27 06:57:27;;;;;;;;;;;3.90;88.70;;;;;;5043425;28;20035;-84
2023/01/27 07:00:30;;;;;;;;;;;3.90;88.90;;;;;;5053847;28;19977;-86
2023/01/27 07:03:05;;;;;;;;;;;3.90;88.90;;;;;;5046088;28;19917;-88
2023/01/27 07:05:37;;;;;;;;;;;3.90;88.80;;;;;;5041789;28;19921;-88
2023/01/27 07:08:23;;;;;;;;;;;;;;;;;;;;;
2023/01/27 07:11:00;;;;;;;;;;;3.90;89.10;;;;;;5110220;22;19933;-87
2023/01/27 07:13:52;;;;;;;;;;;3.90;89.20;;;;;;5063658;28;19913;-87
2023/01/27 07:16:20;;;;;;;;;;;3.90;89.20;;;;;;5048785;28;19913;-85
2023/01/27 07:18:48;;;;;;;;;;;3.80;89.10;;;;;;5056229;28;19912;-86
2023/01/27 07:21:43;;;;;;;;;;;3.80;89.50;;;;;;5052288;28;19936;-86
2023/01/27 07:24:08;;;;;;;;;;;3.80;89.70;;;;;;5037004;28;19927;-84
2023/01/27 07:26:34;;;;;;;;;;;3.80;89.90;;;;;;5053513;28;19995;-84
2023/01/27 07:29:00;;;;;;;;;;;3.90;90.10;;;;;;5051933;28;19919;-85
2023/01/27 07:31:25;;;;;;;;;;;3.90;89.60;;;;;;5048006;28;19939;-83
2023/01/27 07:33:54;;;;;;;;;;;4.00;89.90;;;;;;5059699;28;19917;-84
2023/01/27 07:36:19;;;;;;;;;;;4.00;89.50;;;;;;5049117;28;19943;-83
2023/01/27 07:38:47;;;;;;;;;;;3.80;89.50;;;;;;5052893;28;20376;-83
2023/01/27 07:41:13;;;;;;;;;;;3.90;89.70;;;;;;5047924;28;19966;-83
2023/01/27 07:43:49;;;;;;;;;;;4.00;89.70;;;;;;5054251;28;19913;-85
2023/01/27 07:46:15;;;;;;;;;;;3.90;89.70;;;;;;5055069;28;19998;-84
2023/01/27 07:48:40;;;;;;;;;;;3.90;89.80;;;;;;5056124;28;19913;-83
2023/01/27 07:51:10;;;;;;;;;;;4.00;89.80;;;;;;5051286;28;19916;-83
2023/01/27 07:53:41;;;;;;;;;;;4.00;89.80;;;;;;5056849;28;19909;-84
2023/01/27 07:56:10;;;;;;;;;;;4.00;89.80;;;;;;5050641;28;19917;-84
2023/01/27 07:58:40;;;;;;;;;;;3.90;89.80;;;;;;5045930;28;19963;-82
2023/01/27 08:01:09;;;;;;;;;;;3.90;89.90;;;;;;5042588;28;19913;-86
2023/01/27 08:03:38;;;;;;;;;;;4.00;90.10;;;;;;5044509;28;19917;-84
2023/01/27 08:06:26;;;;;;;;;;;4.10;89.80;;;;;;5048600;28;19916;-85
2023/01/27 08:09:12;;;;;;;;;;;4.10;89.60;;;;;;5056176;23;19932;-85
2023/01/27 08:12:01;;;;;;;;;;;4.10;89.50;;;;;;5044884;28;19936;-86
2023/01/27 08:14:54;;;;;;;;;;;4.10;89.60;;;;;;5055080;28;19956;-85
2023/01/27 08:17:20;;;;;;;;;;;4.10;89.20;;;;;;5061893;28;19913;-83
2023/01/27 08:19:45;;;;;;;;;;;4.10;89.60;;;;;;5049392;28;19920;-83
2023/01/27 08:22:10;;;;;;;;;;;4.10;89.70;;;;;;5049575;28;19980;-83
2023/01/27 08:24:36;;;;;;;;;;;4.30;89.50;;;;;;5049213;28;19943;-84
2023/01/27 08:27:01;;;;;;;;;;;4.30;88.80;;;;;;5049672;28;19927;-83
2023/01/27 08:29:28;;;;;;;;;;;4.40;89.10;;;;;;5052412;28;19924;-83
2023/01/27 08:31:53;;;;;;;;;;;4.30;88.70;;;;;;5041640;28;19959;-83
2023/01/27 08:34:19;;;;;;;;;;;4.30;88.70;;;;;;5051315;28;19913;-83
2023/01/27 08:36:44;;;;;;;;;;;4.30;88.50;;;;;;5051714;28;19923;-82
2023/01/27 08:39:10;;;;;;;;;;;4.30;88.60;;;;;;5064464;28;19919;-84
2023/01/27 08:41:35;;;;;;;;;;;4.20;88.90;;;;;;5046864;28;19913;-84
2023/01/27 08:44:01;;;;;;;;;;;4.30;89.10;;;;;;5052158;28;19913;-83
2023/01/27 08:46:27;;;;;;;;;;;4.30;89.30;;;;;;5049776;28;19969;-82
2023/01/27 08:48:52;;;;;;;;;;;4.40;89.20;;;;;;5045876;28;19994;-83
2023/01/27 08:51:18;;;;;;;;;;;4.30;88.60;;;;;;5049312;28;19943;-81
2023/01/27 08:53:43;;;;;;;;;;;4.40;88.60;;;;;;5051297;28;19919;-82
2023/01/27 08:56:13;;;;;;;;;;;4.30;88.90;;;;;;5052829;28;19991;-82
2023/01/27 08:58:39;;;;;;;;;;;4.30;89.00;;;;;;5058283;28;19917;-82
2023/01/27 09:01:05;;;;;;;;;;;4.30;88.90;;;;;;5056477;28;19928;-82
2023/01/27 09:03:31;;;;;;;;;;;4.30;88.80;;;;;;5055806;28;19913;-81
2023/01/27 09:05:57;;;;;;;;;;;4.30;88.90;;;;;;5058693;28;19928;-82
2023/01/27 09:08:23;;;;;;;;;;;4.40;88.80;;;;;;5065070;28;19921;-83
2023/01/27 09:10:48;;;;;;;;;;;4.40;88.80;;;;;;5053313;28;19920;-81
2023/01/27 09:13:15;;;;;;;;;;;4.50;88.70;;;;;;5052323;28;20436;-82
2023/01/27 09:15:42;;;;;;;;;;;4.40;88.40;;;;;;5057077;28;19913;-83
2023/01/27 09:18:08;;;;;;;;;;;4.40;88.40;;;;;;5055131;28;19925;-83
2023/01/27 09:20:35;;;;;;;;;;;4.50;88.40;;;;;;5055336;28;19912;-83
2023/01/27 09:23:02;;;;;;;;;;;4.40;88.50;;;;;;5054058;28;19919;-81
2023/01/27 09:25:27;;;;;;;;;;;4.40;88.40;;;;;;5054811;28;19921;-82
2023/01/27 09:27:54;;;;;;;;;;;4.40;88.60;;;;;;5054156;28;20434;-81
2023/01/27 09:30:20;;;;;;;;;;;4.40;88.70;;;;;;5052744;28;19924;-81
2023/01/27 09:32:45;;;;;;;;;;;4.30;88.90;;;;;;5041546;28;19913;-82
2023/01/27 09:35:11;;;;;;;;;;;4.50;88.90;;;;;;5053823;28;19937;-82
2023/01/27 09:37:40;;;;;;;;;;;4.40;88.60;;;;;;5053669;28;20063;-82
2023/01/27 09:40:10;;;;;;;;;;;4.40;88.70;;;;;;5056987;28;19920;-82
2023/01/27 09:42:39;;;;;;;;;;;4.50;88.80;;;;;;5054003;28;19913;-81
2023/01/27 09:45:12;;;;;;;;;;;4.50;88.50;;;;;;5048073;28;19952;-81
2023/01/27 09:47:38;;;;;;;;;;;4.40;88.40;;;;;;5047958;28;19917;-80
2023/01/27 09:50:06;;;;;;;;;;;4.50;88.50;;;;;;5049839;28;19917;-82
2023/01/27 09:52:42;;;;;;;;;;;4.50;89.00;;;;;;5055389;28;20003;-82
2023/01/27 09:55:08;;;;;;;;;;;4.50;88.90;;;;;;5057451;28;20443;-81
2023/01/27 09:57:52;;;;;;;;;;;4.40;88.90;;;;;;5054265;28;19912;-81
2023/01/27 10:00:23;;;;;;;;;;;4.40;88.80;;;;;;5054544;28;19949;-83
2023/01/27 10:02:55;;;;;;;;;;;4.50;88.70;;;;;;5054038;28;20051;-81
2023/01/27 10:05:46;;;;;;;;;;;4.50;88.70;;;;;;5050832;28;19913;-81
2023/01/27 10:08:18;;;;;;;;;;;4.40;89.00;;;;;;5047231;28;20380;-81
2023/01/27 10:11:02;;;;;;;;;;;4.40;89.00;;;;;;5052875;28;20039;-82
2023/01/27 10:13:29;;;;;;;;;;;4.50;88.70;;;;;;5048493;28;19920;-81
2023/01/27 10:15:58;;;;;;;;;;;4.50;88.80;;;;;;5051851;28;19936;-82
2023/01/27 10:18:41;;;;;;;;;;;4.60;88.80;;;;;;5057824;28;19919;-81
2023/01/27 10:21:12;;;;;;;;;;;4.60;88.50;;;;;;5052263;28;20042;-81
2023/01/27 10:23:53;;;;;;;;;;;4.70;88.40;;;;;;5050703;28;19913;-82
2023/01/27 10:26:22;;;;;;;;;;;4.50;88.50;;;;;;5055114;28;19971;-81
2023/01/27 10:28:53;;;;;;;;;;;4.70;88.60;;;;;;5061355;28;19976;-82
2023/01/27 10:31:34;;;;;;;;;;;4.70;88.30;;;;;;5056190;28;19931;-82
2023/01/27 10:34:03;;;;;;;;;;;4.60;88.20;;;;;;5050978;28;19919;-83
2023/01/27 10:36:34;;;;;;;;;;;4.60;88.50;;;;;;5054146;28;19909;-82
2023/01/27 10:39:00;;;;;;;;;;;4.60;88.50;;;;;;5049295;28;20388;-82
2023/01/27 10:41:31;;;;;;;;;;;4.50;88.40;;;;;;5050708;28;19923;-82
2023/01/27 10:44:02;;;;;;;;;;;4.60;88.50;;;;;;5049312;28;20379;-81
2023/01/27 10:46:27;;;;;;;;;;;4.50;88.50;;;;;;5051332;28;20336;-82
2023/01/27 10:49:02;;;;;;;;;;;4.70;88.30;;;;;;5049351;28;19982;-83
2023/01/27 10:51:37;;;;;;;;;;;4.60;88.20;;;;;;5049386;28;19956;-82
2023/01/27 10:54:12;;;;;;;;;;;4.70;88.20;;;;;;5050322;28;19912;-81
2023/01/27 10:56:47;;;;;;;;;;;4.70;88.10;;;;;;5045506;28;19921;-83
2023/01/27 10:59:12;;;;;;;;;;;4.80;88.20;;;;;;5048505;28;19976;-82
2023/01/27 11:01:40;;;;;;;;;;;4.70;87.80;;;;;;5046900;28;19913;-84
2023/01/27 11:04:12;;;;;;;;;;;4.80;87.60;;;;;;5052818;28;19923;-82
2023/01/27 11:06:39;;;;;;;;;;;4.80;87.80;;;;;;5053593;28;19939;-82
2023/01/27 11:09:11;;;;;;;;;;;4.70;87.80;;;;;;5052515;28;19921;-80
2023/01/27 11:11:43;;;;;;;;;;;4.60;88.20;;;;;;5053030;28;20373;-80
2023/01/27 11:14:14;;;;;;;;;;;4.70;88.30;;;;;;5062983;28;19916;-80
2023/01/27 11:16:42;;;;;;;;;;;4.70;88.20;;;;;;5062139;28;19913;-80
2023/01/27 11:19:17;;;;;;;;;;;4.80;87.70;;;;;;5052382;28;19917;-78
2023/01/27 11:21:42;;;;;;;;;;;4.70;87.40;;;;;;5049863;28;19912;-80
2023/01/27 11:24:22;;;;;;;;;;;4.70;87.40;;;;;;5049966;28;19960;-80
2023/01/27 11:26:52;;;;;;;;;;;4.70;87.30;;;;;;5053616;28;19940;-80
2023/01/27 11:29:41;;;;;;;;;;;4.60;87.30;;;;;;5055437;28;19956;-80
2023/01/27 11:32:26;;;;;;;;;;;4.60;87.30;;;;;;5054949;28;19924;-81
2023/01/27 11:34:51;;;;;;;;;;;4.60;87.30;;;;;;5064916;28;19924;-80
2023/01/27 11:37:19;;;;;;;;;;;4.70;87.20;;;;;;5051431;28;19913;-81
2023/01/27 11:39:45;;;;;;;;;;;4.70;86.80;;;;;;5049980;28;20345;-81
2023/01/27 11:42:11;;;;;;;;;;;4.70;86.60;;;;;;5049338;28;19948;-80
2023/01/27 11:44:37;;;;;;;;;;;4.70;86.90;;;;;;5052357;28;20483;-79
2023/01/27 11:47:04;;;;;;;;;;;4.80;86.80;;;;;;5047392;28;19913;-79
2023/01/27 11:49:33;;;;;;;;;;;4.90;86.40;;;;;;5041782;28;19959;-80
2023/01/27 11:52:18;;;;;;;;;;;4.80;86.70;;;;;;5050191;28;19919;-83
2023/01/27 11:54:46;;;;;;;;;;;4.90;86.60;;;;;;5051081;28;19913;-82
2023/01/27 11:57:16;;;;;;;;;;;4.70;86.20;;;;;;5059663;28;19917;-82
2023/01/27 11:59:42;;;;;;;;;;;4.70;86.30;;;;;;5057094;28;21613;-82
2023/01/27 12:02:16;;;;;;;;;;;4.80;85.90;;;;;;5041786;28;19919;-82
2023/01/27 12:04:51;;;;;;;;;;;4.80;85.90;;;;;;5054016;28;20003;-82
2023/01/27 12:07:35;;;;;;;;;;;4.80;86.10;;;;;;5060079;28;19913;-83
2023/01/27 12:10:02;;;;;;;;;;;4.90;85.90;;;;;;5060128;28;20011;-83
2023/01/27 12:12:28;;;;;;;;;;;5.00;85.40;;;;;;5057191;28;19928;-82
2023/01/27 12:14:53;;;;;;;;;;;5.00;85.40;;;;;;5063110;28;19912;-83
2023/01/27 12:17:44;;;;;;;;;;;5.00;84.80;;;;;;5070628;22;19935;-79
2023/01/27 12:20:21;;;;;;;;;;;5.10;84.40;;;;;;5050904;28;20270;-79
2023/01/27 12:22:51;;;;;;;;;;;5.00;84.60;;;;;;5046729;28;19913;-80
2023/01/27 12:25:19;;;;;;;;;;;5.10;84.30;;;;;;5052605;28;19948;-79
2023/01/27 12:27:52;;;;;;;;;;;5.10;83.90;;;;;;5045648;28;19913;-81
2023/01/27 12:30:22;;;;;;;;;;;5.10;83.70;;;;;;5051255;28;19924;-80
2023/01/27 12:32:48;;;;;;;;;;;5.20;82.80;;;;;;5052798;28;19920;-82
2023/01/27 12:35:21;;;;;;;;;;;5.10;83.30;;;;;;5054158;28;19921;-79
2023/01/27 12:37:47;;;;;;;;;;;5.20;83.50;;;;;;5052725;28;20343;-80
2023/01/27 12:40:20;;;;;;;;;;;5.10;83.50;;;;;;5053574;28;19917;-80
2023/01/27 12:42:52;;;;;;;;;;;5.20;83.20;;;;;;5056402;28;20345;-79
2023/01/27 12:45:17;;;;;;;;;;;5.10;83.30;;;;;;5054513;28;19923;-81
2023/01/27 12:48:01;;;;;;;;;;;5.10;82.70;;;;;;5049678;28;20000;-81
2023/01/27 12:50:29;;;;;;;;;;;5.00;82.70;;;;;;5051881;28;19959;-82
2023/01/27 12:52:57;;;;;;;;;;;5.00;83.20;;;;;;5047967;28;19921;-81
2023/01/27 12:55:27;;;;;;;;;;;5.10;83.50;;;;;;5053445;28;20296;-81
2023/01/27 12:57:52;;;;;;;;;;;5.10;82.40;;;;;;5047354;28;21360;-79
2023/01/27 13:00:18;;;;;;;;;;;5.10;82.20;;;;;;5048938;28;19913;-80
2023/01/27 13:02:43;;;;;;;;;;;5.00;82.60;;;;;;5046349;28;19913;-81
2023/01/27 13:05:14;;;;;;;;;;;5.10;82.60;;;;;;5048991;28;19958;-79
2023/01/27 13:07:43;;;;;;;;;;;5.30;81.50;;;;;;5048841;28;19917;-81
2023/01/27 13:10:20;;;;;;;;;;;5.40;81.60;;;;;;5044917;28;19929;-79
2023/01/27 13:12:57;;;;;;;;;;;5.40;80.80;;;;;;5046155;28;19939;-80
2023/01/27 13:15:23;;;;;;;;;;;5.40;80.40;;;;;;5050959;28;19916;-80
2023/01/27 13:17:52;;;;;;;;;;;5.30;80.50;;;;;;5045395;28;19912;-81
2023/01/27 13:20:18;;;;;;;;;;;5.30;81.10;;;;;;5051974;28;19909;-80
2023/01/27 13:22:48;;;;;;;;;;;5.20;81.30;;;;;;5049820;28;19913;-80
2023/01/27 13:25:17;;;;;;;;;;;5.20;81.80;;;;;;5052596;28;19920;-80
2023/01/27 13:27:42;;;;;;;;;;;5.10;82.00;;;;;;5045151;28;19917;-80
2023/01/27 13:30:15;;;;;;;;;;;5.00;82.00;;;;;;5038771;28;19940;-80
2023/01/27 13:32:42;;;;;;;;;;;5.00;82.20;;;;;;5041439;28;20338;-80
2023/01/27 13:35:23;;;;;;;;;;;5.00;82.40;;;;;;5045492;28;19912;-80
2023/01/27 13:37:51;;;;;;;;;;;5.10;82.50;;;;;;5055555;28;20288;-80
2023/01/27 13:40:17;;;;;;;;;;;5.00;82.80;;;;;;5049086;28;20441;-80
2023/01/27 13:42:42;;;;;;;;;;;5.00;83.20;;;;;;5045543;28;19924;-80
2023/01/27 13:45:13;;;;;;;;;;;5.00;83.10;;;;;;5042742;28;19943;-81
2023/01/27 13:47:56;;;;;;;;;;;4.90;83.10;;;;;;5040279;28;19968;-80
2023/01/27 13:50:25;;;;;;;;;;;5.00;83.60;;;;;;5040666;28;19920;-81
2023/01/27 13:52:52;;;;;;;;;;;4.90;83.20;;;;;;5048008;28;19934;-81
2023/01/27 13:55:25;;;;;;;;;;;4.90;82.80;;;;;;5048301;28;19939;-81
2023/01/27 13:58:06;;;;;;;;;;;4.90;83.50;;;;;;5049002;28;20004;-83
2023/01/27 14:00:35;;;;;;;;;;;5.00;82.10;;;;;;5047352;28;19917;-83
2023/01/27 14:03:04;;;;;;;;;;;4.90;82.80;;;;;;5055540;28;20380;-82
2023/01/27 14:05:41;;;;;;;;;;;4.90;83.40;;;;;;5040159;28;20001;-82
2023/01/27 14:08:12;;;;;;;;;;;4.70;83.60;;;;;;5041496;28;19913;-82
2023/01/27 14:10:58;;;;;;;;;;;4.70;83.80;;;;;;5050260;28;19925;-84
2023/01/27 14:13:29;;;;;;;;;;;4.80;84.00;;;;;;5045862;28;20015;-84
2023/01/27 14:15:55;;;;;;;;;;;4.90;83.00;;;;;;5049318;28;19916;-84
2023/01/27 14:18:26;;;;;;;;;;;4.90;82.80;;;;;;5040375;28;20407;-84
2023/01/27 14:20:55;;;;;;;;;;;4.90;82.60;;;;;;5038670;28;20012;-83
2023/01/27 14:23:31;;;;;;;;;;;4.90;82.40;;;;;;5028879;28;19917;-82
2023/01/27 14:25:57;;;;;;;;;;;5.00;82.20;;;;;;5040349;28;20356;-83
2023/01/27 14:28:27;;;;;;;;;;;5.00;81.50;;;;;;5036481;28;19928;-81
2023/01/27 14:31:05;;;;;;;;;;;5.00;81.60;;;;;;5037210;28;19921;-82
2023/01/27 14:33:36;;;;;;;;;;;5.10;81.80;;;;;;5034654;28;19956;-79
2023/01/27 14:36:15;;;;;;;;;;;5.10;80.90;;;;;;5037914;28;19953;-80
2023/01/27 14:38:47;;;;;;;;;;;5.10;81.00;;;;;;5044821;28;19913;-83
2023/01/27 14:41:15;;;;;;;;;;;5.10;80.70;;;;;;5050207;28;20667;-86
2023/01/27 14:43:44;;;;;;;;;;;5.10;80.50;;;;;;5046430;28;19937;-83
2023/01/27 14:46:28;;;;;;;;;;;5.20;80.90;;;;;;5054005;28;19936;-83
2023/01/27 14:49:13;;;;;;;;;;;5.30;80.00;;;;;;5053111;28;19977;-85
2023/01/27 14:51:45;;;;;;;;;;;5.20;79.50;;;;;;5050703;28;20423;-84
2023/01/27 14:54:19;;;;;;;;;;;5.10;80.10;;;;;;5061314;28;19917;-84
2023/01/27 14:57:05;;;;;;;;;;;5.20;80.50;;;;;;5050725;28;19919;-82
2023/01/27 14:59:30;;;;;;;;;;;5.30;79.80;;;;;;5052281;28;20388;-83
2023/01/27 15:02:15;;;;;;;;;;;5.20;79.70;;;;;;5043116;28;19913;-85
2023/01/27 15:05:04;;;;;;;;;;;5.10;79.90;;;;;;5051658;28;19917;-84
2023/01/27 15:07:35;;;;;;;;;;;5.30;79.60;;;;;;5043960;28;20349;-86
2023/01/27 15:10:19;;;;;;;;;;;5.20;80.20;;;;;;5044663;28;19925;-86
2023/01/27 15:12:50;;;;;;;;;;;5.20;80.50;;;;;;5051136;28;19912;-84
2023/01/27 15:15:16;;;;;;;;;;;5.30;80.00;;;;;;5064159;28;19980;-85
2023/01/27 15:17:48;;;;;;;;;;;5.30;80.40;;;;;;5048452;28;20361;-88
2023/01/27 15:20:33;;;;;;;;;;;5.10;80.40;;;;;;5051573;28;20257;-85
2023/01/27 15:23:17;;;;;;;;;;;5.30;80.50;;;;;;5053670;28;19913;-83